Time;durP1;ratioP1;P1;durP2;ratioP2;P2;SDS_P1;SDS_P2;PMS_P1;PMS_P2;Temp;Humidity;BMP_temperature;BMP_pressure;BME280_temperature;BME280_humidity;BME280_pressure;Samples;Min_cycle;Max_cycle;Signal;HPM_P1;HPM_P2
2023/08/25 00:00:09;;;;;;;10.00;6.72;;;27.40;97.20;;;;;;7398966;19;19918;-73
2023/08/25 00:02:36;;;;;;;9.32;6.28;;;27.50;97.10;;;;;;7399429;19;19922;-74
2023/08/25 00:05:03;;;;;;;11.57;7.18;;;27.40;96.90;;;;;;7399808;19;20327;-72
2023/08/25 00:07:29;;;;;;;12.07;7.05;;;27.50;96.90;;;;;;7400075;19;19954;-72
2023/08/25 00:09:55;;;;;;;9.57;6.55;;;27.50;96.80;;;;;;7402109;19;20063;-72
2023/08/25 00:12:22;;;;;;;11.07;6.45;;;27.40;96.50;;;;;;7398430;19;20392;-72
2023/08/25 00:14:48;;;;;;;;;;;27.50;96.50;;;;;;7402795;19;19914;-73
2023/08/25 00:17:14;;;;;;;11.38;6.05;;;27.40;96.60;;;;;;7399725;19;19926;-73
2023/08/25 00:19:40;;;;;;;11.30;6.82;;;27.40;96.60;;;;;;7401842;19;19918;-72
2023/08/25 00:22:06;;;;;;;11.05;7.05;;;27.40;96.80;;;;;;7398996;19;19935;-73
2023/08/25 00:24:35;;;;;;;8.98;6.32;;;27.30;96.80;;;;;;7399490;19;19925;-72
2023/08/25 00:27:01;;;;;;;10.45;7.03;;;27.30;96.90;;;;;;7398430;19;20328;-73
2023/08/25 00:29:27;;;;;;;8.65;6.25;;;27.30;96.90;;;;;;7399270;19;19915;-73
2023/08/25 00:31:52;;;;;;;12.50;8.07;;;27.30;97.00;;;;;;7402207;19;19978;-73
2023/08/25 00:34:18;;;;;;;8.93;6.72;;;27.30;97.00;;;;;;7397893;19;20252;-72
2023/08/25 00:36:44;;;;;;;11.45;6.50;;;27.20;97.00;;;;;;7399169;19;19978;-72
2023/08/25 00:39:10;;;;;;;9.98;6.85;;;27.20;97.20;;;;;;7399702;19;19918;-73
2023/08/25 00:41:36;;;;;;;9.55;6.75;;;27.20;97.30;;;;;;7400222;19;19922;-72
2023/08/25 00:44:02;;;;;;;11.63;7.18;;;27.20;97.10;;;;;;7399123;19;20343;-72
2023/08/25 00:46:30;;;;;;;13.55;6.38;;;27.10;96.80;;;;;;7400079;19;19922;-72
2023/08/25 00:48:56;;;;;;;10.52;6.82;;;27.10;96.70;;;;;;7400542;19;19922;-72
2023/08/25 00:51:23;;;;;;;;;;;27.10;96.70;;;;;;7401404;19;21326;-72
2023/08/25 00:53:49;;;;;;;13.90;8.20;;;27.10;96.70;;;;;;7396022;19;19928;-72
2023/08/25 00:56:17;;;;;;;12.77;6.60;;;27.10;96.50;;;;;;7400578;19;20243;-72
2023/08/25 00:58:43;;;;;;;10.43;6.25;;;27.10;96.40;;;;;;7401553;19;19934;-72
2023/08/25 01:01:11;;;;;;;11.88;6.93;;;27.10;96.30;;;;;;7398932;19;19923;-73
2023/08/25 01:03:39;;;;;;;8.52;7.15;;;27.00;96.40;;;;;;7399081;19;19915;-72
2023/08/25 01:06:05;;;;;;;12.88;6.85;;;27.00;96.40;;;;;;7399432;19;19976;-71
2023/08/25 01:08:32;;;;;;;13.52;6.32;;;27.00;96.10;;;;;;7366624;19;19942;-72
2023/08/25 01:11:25;;;;;;;10.40;5.68;;;27.00;95.80;;;;;;7401156;19;19914;-72
2023/08/25 01:14:20;;;;;;;9.77;6.07;;;27.10;95.50;;;;;;7397592;19;19925;-72
2023/08/25 01:16:57;;;;;;;10.70;5.80;;;27.20;95.00;;;;;;7364584;19;19922;-73
2023/08/25 01:20:08;;;;;;;10.18;7.72;;;27.20;94.70;;;;;;7397985;19;20339;-72
2023/08/25 01:23:04;;;;;;;9.75;7.18;;;27.20;94.60;;;;;;7398636;19;19954;-72
2023/08/25 01:25:30;;;;;;;8.38;5.78;;;27.20;94.40;;;;;;7397939;19;19950;-71
2023/08/25 01:28:05;;;;;;;10.13;6.20;;;27.30;93.90;;;;;;7400543;19;20035;-72
2023/08/25 01:30:32;;;;;;;12.38;5.97;;;27.30;93.80;;;;;;7396490;19;20053;-71
2023/08/25 01:32:59;;;;;;;9.35;5.95;;;27.30;93.60;;;;;;7397858;19;19926;-71
2023/08/25 01:35:31;;;;;;;11.35;7.05;;;27.30;93.50;;;;;;7398936;19;19918;-72
2023/08/25 01:38:03;;;;;;;7.93;6.38;;;27.30;93.40;;;;;;7399718;19;19926;-71
2023/08/25 01:40:55;;;;;;;8.60;5.93;;;27.30;93.20;;;;;;7399558;19;19922;-73
2023/08/25 01:43:23;;;;;;;10.63;6.35;;;27.30;93.10;;;;;;7397291;19;19918;-72
2023/08/25 01:45:50;;;;;;;9.35;5.60;;;27.30;93.30;;;;;;7396664;19;19985;-71
2023/08/25 01:48:16;;;;;;;9.88;5.78;;;27.30;93.00;;;;;;7397517;19;19925;-71
2023/08/25 01:50:43;;;;;;;10.43;6.35;;;27.40;92.90;;;;;;7396834;19;19951;-73
2023/08/25 01:53:09;;;;;;;9.57;6.28;;;27.40;93.00;;;;;;7395732;19;19926;-73
2023/08/25 01:55:35;;;;;;;11.82;5.85;;;27.40;92.60;;;;;;7399374;19;19925;-71
2023/08/25 01:58:02;;;;;;;9.50;6.03;;;27.40;92.20;;;;;;7399036;19;20335;-72
2023/08/25 02:00:28;;;;;;;10.27;5.85;;;27.40;92.20;;;;;;7393964;19;19950;-71
2023/08/25 02:02:55;;;;;;;10.95;5.53;;;27.40;92.20;;;;;;7397643;19;20342;-72
2023/08/25 02:05:22;;;;;;;10.57;6.13;;;27.40;92.10;;;;;;7396775;19;19946;-72
2023/08/25 02:07:48;;;;;;;10.30;6.55;;;27.50;92.30;;;;;;7405463;19;19919;-72
2023/08/25 02:10:14;;;;;;;8.60;6.13;;;27.40;92.30;;;;;;7396036;19;19922;-73
2023/08/25 02:12:40;;;;;;;10.10;6.40;;;27.50;92.40;;;;;;7371910;19;20448;-72
2023/08/25 02:15:06;;;;;;;10.23;6.15;;;27.40;92.50;;;;;;7403727;19;19925;-73
2023/08/25 02:17:32;;;;;;;;;;;27.40;92.50;;;;;;7407428;19;19922;-72
2023/08/25 02:19:57;;;;;;;12.82;7.32;;;27.50;92.80;;;;;;7402132;19;19935;-72
2023/08/25 02:22:23;;;;;;;11.60;7.40;;;27.40;92.70;;;;;;7401711;19;19933;-72
2023/08/25 02:24:50;;;;;;;9.90;7.28;;;27.40;92.70;;;;;;7403118;19;20347;-73
2023/08/25 02:27:15;;;;;;;;;;;27.40;93.40;;;;;;7404295;19;19918;-72
2023/08/25 02:29:41;;;;;;;15.10;8.02;;;27.30;94.30;;;;;;7401193;19;20290;-72
2023/08/25 02:32:07;;;;;;;13.40;8.52;;;27.30;95.10;;;;;;7401455;19;19922;-72
2023/08/25 02:34:33;;;;;;;16.30;8.18;;;27.30;95.30;;;;;;7405325;19;20303;-72
2023/08/25 02:36:58;;;;;;;16.58;9.55;;;27.20;95.80;;;;;;7403167;19;19991;-72
2023/08/25 02:39:24;;;;;;;15.18;9.52;;;27.20;96.20;;;;;;7403259;19;19974;-71
2023/08/25 02:41:50;;;;;;;14.15;8.68;;;27.10;96.40;;;;;;7403213;19;19919;-72
2023/08/25 02:44:16;;;;;;;;;;;27.00;96.60;;;;;;7404798;19;20350;-72
2023/08/25 02:46:43;;;;;;;17.85;8.82;;;27.00;96.80;;;;;;7401413;19;19919;-72
2023/08/25 02:49:08;;;;;;;16.38;9.20;;;27.00;97.40;;;;;;7402974;19;19929;-72
2023/08/25 02:51:34;;;;;;;15.30;8.68;;;27.00;97.20;;;;;;7402838;19;19914;-73
2023/08/25 02:54:00;;;;;;;16.00;8.65;;;27.00;97.30;;;;;;7402606;19;19925;-72
2023/08/25 02:56:26;;;;;;;17.83;8.82;;;26.90;97.50;;;;;;7402220;19;19942;-72
2023/08/25 02:58:52;;;;;;;16.83;9.27;;;26.90;97.40;;;;;;7401821;19;19990;-72
2023/08/25 03:01:17;;;;;;;13.77;8.45;;;26.90;97.50;;;;;;7399415;19;20338;-72
2023/08/25 03:03:44;;;;;;;16.70;8.88;;;26.80;97.40;;;;;;7403738;19;20303;-72
2023/08/25 03:06:09;;;;;;;;;;;26.80;97.40;;;;;;7402510;19;19914;-71
2023/08/25 03:08:35;;;;;;;13.30;7.80;;;26.80;97.30;;;;;;7403602;19;19918;-72
2023/08/25 03:11:03;;;;;;;14.35;7.93;;;26.80;96.90;;;;;;7394093;19;20339;-72
2023/08/25 03:13:29;;;;;;;13.25;8.90;;;26.80;97.00;;;;;;7401068;19;20315;-73
2023/08/25 03:15:55;;;;;;;13.65;8.80;;;26.80;97.30;;;;;;7403360;19;19918;-73
2023/08/25 03:18:21;;;;;;;13.57;8.68;;;26.80;97.80;;;;;;7399763;19;19918;-73
2023/08/25 03:20:53;;;;;;;13.48;7.72;;;26.70;98.00;;;;;;7403386;19;19927;-72
2023/08/25 03:23:20;;;;;;;12.30;8.13;;;26.60;98.20;;;;;;7402477;19;19922;-73
2023/08/25 03:25:46;;;;;;;13.45;7.80;;;26.60;98.40;;;;;;7400198;19;19922;-73
2023/08/25 03:28:12;;;;;;;12.65;7.72;;;26.60;98.30;;;;;;7399161;19;19914;-72
2023/08/25 03:30:38;;;;;;;12.73;8.57;;;26.60;98.20;;;;;;7403806;19;20365;-72
2023/08/25 03:33:05;;;;;;;10.98;7.78;;;26.60;98.30;;;;;;7402296;19;19923;-71
2023/08/25 03:35:37;;;;;;;13.20;7.95;;;26.60;98.40;;;;;;7401385;19;19933;-72
2023/08/25 03:38:04;;;;;;;11.88;8.63;;;26.60;98.50;;;;;;7401919;19;19919;-72
2023/08/25 03:40:31;;;;;;;13.30;8.63;;;26.60;98.50;;;;;;7403008;19;19918;-72
2023/08/25 03:42:56;;;;;;;12.55;9.35;;;26.60;98.60;;;;;;7402593;19;19926;-71
2023/08/25 03:45:22;;;;;;;11.73;7.82;;;26.60;98.60;;;;;;7400321;19;20023;-71
2023/08/25 03:47:48;;;;;;;13.38;8.05;;;26.60;98.60;;;;;;7401801;19;19945;-72
2023/08/25 03:50:14;;;;;;;11.00;7.47;;;26.50;98.60;;;;;;7400131;19;20239;-72
2023/08/25 03:52:40;;;;;;;13.20;8.20;;;26.50;98.70;;;;;;7400762;19;19918;-72
2023/08/25 03:55:06;;;;;;;12.45;8.27;;;26.50;98.70;;;;;;7397820;19;19915;-72
2023/08/25 03:57:31;;;;;;;12.13;7.60;;;26.50;98.90;;;;;;7400928;19;20013;-72
2023/08/25 03:59:57;;;;;;;11.20;7.80;;;26.40;99.00;;;;;;7401073;19;20394;-71
2023/08/25 04:02:23;;;;;;;11.40;7.40;;;26.50;99.10;;;;;;7399341;19;19957;-72
2023/08/25 04:04:49;;;;;;;11.95;7.47;;;26.50;99.30;;;;;;7398581;19;19918;-72
2023/08/25 04:07:14;;;;;;;11.25;7.43;;;26.40;99.30;;;;;;7398576;19;19994;-72
2023/08/25 04:09:41;;;;;;;11.95;7.85;;;26.40;99.40;;;;;;7403222;19;19929;-72
2023/08/25 04:12:07;;;;;;;;;;;26.40;99.50;;;;;;7402495;19;19986;-72
2023/08/25 04:14:33;;;;;;;12.23;8.43;;;26.50;99.70;;;;;;7401482;19;19959;-72
2023/08/25 04:16:59;;;;;;;11.27;7.97;;;26.50;99.90;;;;;;7400249;19;19947;-72
2023/08/25 04:19:25;;;;;;;14.18;8.13;;;26.40;99.90;;;;;;7398751;19;19918;-72
2023/08/25 04:21:51;;;;;;;11.02;8.52;;;26.40;99.90;;;;;;7402718;19;19914;-72
2023/08/25 04:24:17;;;;;;;12.13;7.85;;;26.40;99.90;;;;;;7397211;19;20558;-71
2023/08/25 04:26:44;;;;;;;11.50;8.18;;;26.40;99.90;;;;;;7400783;19;19934;-73
2023/08/25 04:29:09;;;;;;;13.25;8.30;;;26.30;99.90;;;;;;7398060;19;19950;-71
2023/08/25 04:31:36;;;;;;;11.13;8.30;;;26.40;99.90;;;;;;7400074;19;19926;-71
2023/08/25 04:34:03;;;;;;;;;;;26.40;99.90;;;;;;7401236;19;19918;-71
2023/08/25 04:36:28;;;;;;;12.65;8.00;;;26.30;99.90;;;;;;7398580;19;20006;-72
2023/08/25 04:38:54;;;;;;;10.70;7.80;;;26.40;99.90;;;;;;7400252;19;19938;-71
2023/08/25 04:41:20;;;;;;;11.20;7.43;;;26.40;99.90;;;;;;7398693;19;19918;-72
2023/08/25 04:43:47;;;;;;;11.50;8.02;;;26.40;99.90;;;;;;7398394;19;20355;-72
2023/08/25 04:46:13;;;;;;;12.70;8.32;;;26.40;99.90;;;;;;7398858;19;19923;-71
2023/08/25 04:48:43;;;;;;;11.75;8.18;;;26.40;99.90;;;;;;7369847;19;19936;-73
2023/08/25 04:51:08;;;;;;;17.00;8.55;;;26.40;99.90;;;;;;7397978;19;19925;-72
2023/08/25 04:53:34;;;;;;;13.95;8.27;;;26.50;99.90;;;;;;7402195;19;19969;-72
2023/08/25 04:56:00;;;;;;;10.30;7.85;;;26.50;99.90;;;;;;7402387;19;19922;-71
2023/08/25 04:58:26;;;;;;;12.25;8.50;;;26.50;99.90;;;;;;7398259;19;19914;-72
2023/08/25 05:00:53;;;;;;;12.13;7.57;;;26.40;99.90;;;;;;7400922;19;19926;-72
2023/08/25 05:03:19;;;;;;;11.63;7.45;;;26.50;99.90;;;;;;7398895;19;19914;-72
2023/08/25 05:05:45;;;;;;;12.88;8.25;;;26.50;99.90;;;;;;7400344;19;19914;-72
2023/08/25 05:08:10;;;;;;;12.73;8.52;;;26.50;99.90;;;;;;7394689;19;19919;-71
2023/08/25 05:10:36;;;;;;;13.07;8.52;;;26.50;99.90;;;;;;7398479;19;20031;-72
2023/08/25 05:13:03;;;;;;;12.55;7.78;;;26.50;99.70;;;;;;7397059;19;19981;-72
2023/08/25 05:15:29;;;;;;;;;;;26.40;99.70;;;;;;7403818;19;20606;-72
2023/08/25 05:17:55;;;;;;;12.77;7.63;;;26.50;99.60;;;;;;7398555;19;19922;-72
2023/08/25 05:20:21;;;;;;;9.73;8.10;;;26.50;99.50;;;;;;7397554;19;19948;-72
2023/08/25 05:22:47;;;;;;;;;;;26.50;99.50;;;;;;7401739;19;19926;-72
2023/08/25 05:25:14;;;;;;;16.27;8.27;;;26.50;99.30;;;;;;7394279;19;20282;-72
2023/08/25 05:27:40;;;;;;;16.67;8.55;;;26.60;99.10;;;;;;7397772;19;19937;-72
2023/08/25 05:30:06;;;;;;;12.18;7.53;;;26.50;99.00;;;;;;7398080;19;19925;-72
2023/08/25 05:32:32;;;;;;;16.65;8.57;;;26.60;99.00;;;;;;7394089;19;19919;-73
2023/08/25 05:34:58;;;;;;;12.27;7.47;;;26.60;99.20;;;;;;7399217;19;19935;-73
2023/08/25 05:37:24;;;;;;;12.65;8.23;;;26.60;99.50;;;;;;7396425;19;20273;-73
2023/08/25 05:39:50;;;;;;;10.15;7.88;;;26.60;99.60;;;;;;7398809;19;19994;-73
2023/08/25 05:42:16;;;;;;;12.20;8.32;;;26.60;99.70;;;;;;7399610;19;19937;-73
2023/08/25 05:44:43;;;;;;;14.52;9.75;;;26.60;99.60;;;;;;7404254;19;19915;-73
2023/08/25 05:47:09;;;;;;;13.05;9.23;;;26.60;99.70;;;;;;7401044;19;19923;-73
2023/08/25 05:49:35;;;;;;;13.32;8.15;;;26.60;99.90;;;;;;7404812;19;20359;-73
2023/08/25 05:52:00;;;;;;;9.25;7.97;;;26.60;99.90;;;;;;7404146;19;20282;-72
2023/08/25 05:54:26;;;;;;;11.35;8.52;;;26.70;99.90;;;;;;7402482;19;19927;-73
2023/08/25 05:56:55;;;;;;;13.95;8.27;;;26.70;99.90;;;;;;7405276;19;19914;-73
2023/08/25 05:59:20;;;;;;;12.70;8.70;;;26.70;99.90;;;;;;7370765;19;19922;-74
2023/08/25 06:01:46;;;;;;;12.05;8.65;;;26.70;99.90;;;;;;7406785;19;19919;-73
2023/08/25 06:04:12;;;;;;;12.68;9.05;;;26.80;99.90;;;;;;7402586;19;19919;-73
2023/08/25 06:06:38;;;;;;;10.98;9.10;;;26.80;99.90;;;;;;7407107;19;19911;-74
2023/08/25 06:09:05;;;;;;;12.60;8.95;;;26.80;99.90;;;;;;7403490;19;19923;-73
2023/08/25 06:11:31;;;;;;;11.50;8.57;;;26.80;99.90;;;;;;7408028;19;19914;-74
2023/08/25 06:13:56;;;;;;;12.73;8.68;;;26.80;99.90;;;;;;7406731;19;19925;-74
2023/08/25 06:16:23;;;;;;;11.80;9.98;;;26.90;99.90;;;;;;7405294;19;20372;-74
2023/08/25 06:18:48;;;;;;;12.10;8.55;;;26.90;99.90;;;;;;7366463;19;19921;-74
2023/08/25 06:21:14;;;;;;;14.63;8.48;;;26.90;99.90;;;;;;7402955;19;19922;-73
2023/08/25 06:23:40;;;;;;;12.13;8.77;;;27.00;99.90;;;;;;7402838;19;19963;-74
2023/08/25 06:26:06;;;;;;;11.43;8.48;;;27.10;99.90;;;;;;7401710;19;20233;-73
2023/08/25 06:28:33;;;;;;;10.77;8.60;;;27.10;99.90;;;;;;7403612;19;19910;-74
2023/08/25 06:30:59;;;;;;;14.38;8.82;;;27.20;99.90;;;;;;7405601;19;19918;-73
2023/08/25 06:33:29;;;;;;;15.30;8.88;;;27.20;99.90;;;;;;7402206;19;19922;-73
2023/08/25 06:35:56;;;;;;;12.60;8.68;;;27.20;99.90;;;;;;7405044;19;19918;-73
2023/08/25 06:38:23;;;;;;;21.50;10.48;;;27.10;99.90;;;;;;7400386;19;19927;-73
2023/08/25 06:40:50;;;;;;;16.20;8.23;;;27.10;99.90;;;;;;7403156;19;19917;-74
2023/08/25 06:43:16;;;;;;;12.82;8.07;;;27.20;99.90;;;;;;7403107;19;19925;-73
2023/08/25 06:45:42;;;;;;;10.85;8.07;;;27.20;99.90;;;;;;7403894;19;19967;-74
2023/08/25 06:48:08;;;;;;;14.57;8.35;;;27.30;99.90;;;;;;7402998;19;19926;-72
2023/08/25 06:50:34;;;;;;;13.63;8.73;;;27.30;99.90;;;;;;7402381;19;20339;-74
2023/08/25 06:52:59;;;;;;;13.40;8.23;;;27.40;99.90;;;;;;7405684;19;19922;-72
2023/08/25 06:55:25;;;;;;;11.88;8.57;;;27.50;99.90;;;;;;7402021;19;20304;-72
2023/08/25 06:57:52;;;;;;;11.93;8.63;;;27.60;99.90;;;;;;7404239;19;19914;-74
2023/08/25 07:00:18;;;;;;;10.07;7.78;;;27.60;99.90;;;;;;7401361;19;20374;-73
2023/08/25 07:02:44;;;;;;;14.43;8.38;;;27.70;99.90;;;;;;7404537;19;20256;-73
2023/08/25 07:05:11;;;;;;;12.50;7.80;;;27.70;99.60;;;;;;7398666;19;19985;-74
2023/08/25 07:07:37;;;;;;;10.30;7.72;;;27.80;99.70;;;;;;7402413;19;19931;-72
2023/08/25 07:10:07;;;;;;;15.23;8.63;;;27.90;99.90;;;;;;7401699;19;20266;-73
2023/08/25 07:12:33;;;;;;;10.60;7.38;;;27.80;99.90;;;;;;7402585;19;19934;-73
2023/08/25 07:14:59;;;;;;;12.27;8.00;;;27.80;99.90;;;;;;7405547;19;19911;-73
2023/08/25 07:17:25;;;;;;;11.73;7.72;;;27.90;99.80;;;;;;7403378;19;20393;-74
2023/08/25 07:19:51;;;;;;;13.18;8.95;;;27.90;99.80;;;;;;7403427;19;19922;-76
2023/08/25 07:22:17;;;;;;;;;;;27.80;99.90;;;;;;7369256;19;19944;-74
2023/08/25 07:24:42;;;;;;;12.00;8.00;;;27.80;99.80;;;;;;7406421;19;19926;-73
2023/08/25 07:27:08;;;;;;;10.15;7.38;;;27.80;99.40;;;;;;7382465;19;19943;-74
2023/08/25 07:29:37;;;;;;;10.85;7.85;;;27.90;98.80;;;;;;7404455;19;19931;-73
2023/08/25 07:32:04;;;;;;;10.88;8.90;;;27.90;99.20;;;;;;7404141;19;19915;-72
2023/08/25 07:34:29;;;;;;;13.43;8.05;;;28.00;98.20;;;;;;7402675;19;19911;-73
2023/08/25 07:36:56;;;;;;;12.05;8.48;;;28.00;98.60;;;;;;7397647;19;19919;-73
2023/08/25 07:39:22;;;;;;;12.48;9.13;;;27.90;98.70;;;;;;7398192;19;20331;-73
2023/08/25 07:41:48;;;;;;;12.27;8.15;;;28.00;98.80;;;;;;7400392;19;19918;-74
2023/08/25 07:44:14;;;;;;;10.60;7.43;;;28.20;98.30;;;;;;7398429;19;19923;-74
2023/08/25 07:46:40;;;;;;;10.80;8.10;;;28.20;97.80;;;;;;7403523;19;19922;-74
2023/08/25 07:49:09;;;;;;;11.70;6.78;;;28.10;98.20;;;;;;7397646;19;20605;-74
2023/08/25 07:51:38;;;;;;;11.30;7.60;;;28.20;98.20;;;;;;7403047;19;19918;-74
2023/08/25 07:54:05;;;;;;;11.38;8.52;;;28.20;98.30;;;;;;7399247;19;19927;-75
2023/08/25 07:56:31;;;;;;;12.95;8.30;;;28.30;98.00;;;;;;7404524;19;19910;-75
2023/08/25 07:58:56;;;;;;;13.38;7.72;;;28.40;98.10;;;;;;7400954;19;19940;-74
2023/08/25 08:01:22;;;;;;;12.30;7.03;;;28.50;96.20;;;;;;7402139;19;21073;-74
2023/08/25 08:03:48;;;;;;;10.18;7.55;;;28.50;95.70;;;;;;7400207;19;19919;-75
2023/08/25 08:06:15;;;;;;;10.23;6.47;;;28.60;94.90;;;;;;7400190;19;19918;-75
2023/08/25 08:08:43;;;;;;;12.18;8.43;;;28.50;94.90;;;;;;7403419;19;19913;-75
2023/08/25 08:11:09;;;;;;;10.40;7.53;;;28.40;95.80;;;;;;7400912;19;19926;-74
2023/08/25 08:13:39;;;;;;;11.25;8.32;;;28.40;96.80;;;;;;7401426;19;19915;-73
2023/08/25 08:16:05;;;;;;;10.27;8.65;;;28.50;95.20;;;;;;7400004;19;19937;-74
2023/08/25 08:18:31;;;;;;;10.80;7.05;;;28.80;95.00;;;;;;7402356;19;19918;-72
2023/08/25 08:20:56;;;;;;;10.48;7.05;;;29.00;94.80;;;;;;7398726;19;19987;-71
2023/08/25 08:23:23;;;;;;;11.88;7.40;;;29.00;94.20;;;;;;7399212;19;19934;-72
2023/08/25 08:25:49;;;;;;;12.75;9.68;;;28.90;95.50;;;;;;7399774;19;19922;-72
2023/08/25 08:28:16;;;;;;;12.40;9.95;;;29.00;96.00;;;;;;7400587;19;19918;-73
2023/08/25 08:30:43;;;;;;;10.55;7.70;;;29.10;95.90;;;;;;7400405;19;20215;-72
2023/08/25 08:33:09;;;;;;;12.63;6.90;;;29.30;94.80;;;;;;7402134;19;19950;-74
2023/08/25 08:35:37;;;;;;;9.88;7.45;;;29.30;93.20;;;;;;7397867;19;19915;-73
2023/08/25 08:38:03;;;;;;;13.82;9.20;;;29.30;94.60;;;;;;7387104;19;19923;-73
2023/08/25 08:40:31;;;;;;;11.95;9.00;;;29.40;94.70;;;;;;7352092;19;20319;-74
2023/08/25 08:43:03;;;;;;;11.60;8.98;;;29.60;93.30;;;;;;7402586;19;20335;-72
2023/08/25 08:45:34;;;;;;;10.80;6.78;;;29.30;93.20;;;;;;7398516;19;19922;-72
2023/08/25 08:48:03;;;;;;;10.75;7.13;;;29.20;93.40;;;;;;7391307;19;19921;-72
2023/08/25 08:50:30;;;;;;;15.57;8.40;;;29.30;93.30;;;;;;7368283;19;20331;-73
2023/08/25 08:52:57;;;;;;;12.07;8.23;;;29.40;92.80;;;;;;7393369;19;19922;-73
2023/08/25 08:55:24;;;;;;;11.48;8.90;;;29.70;92.80;;;;;;7399134;19;19931;-72
2023/08/25 08:57:50;;;;;;;11.73;7.00;;;29.80;92.70;;;;;;7398659;19;19915;-73
2023/08/25 09:00:18;;;;;;;10.25;6.97;;;29.90;91.40;;;;;;7391273;19;19936;-75
2023/08/25 09:02:51;;;;;;;11.80;8.85;;;29.80;90.90;;;;;;7395658;19;19955;-74
2023/08/25 09:05:21;;;;;;;10.90;9.00;;;29.80;91.00;;;;;;7393748;19;19902;-73
2023/08/25 09:07:52;;;;;;;12.65;8.00;;;30.00;91.10;;;;;;7399543;19;19918;-74
2023/08/25 09:10:18;;;;;;;10.30;7.80;;;30.30;90.50;;;;;;7398838;19;19918;-73
2023/08/25 09:12:44;;;;;;;12.77;8.13;;;30.40;90.10;;;;;;7398295;19;19922;-72
2023/08/25 09:15:27;;;;;;;9.55;8.07;;;30.60;90.70;;;;;;7360689;19;19968;-72
2023/08/25 09:18:09;;;;;;;11.88;6.90;;;30.70;90.40;;;;;;7368973;19;19926;-73
2023/08/25 09:20:38;;;;;;;9.77;7.93;;;30.70;90.70;;;;;;7387778;19;20524;-72
2023/08/25 09:23:05;;;;;;;9.70;7.30;;;30.40;90.80;;;;;;7396236;19;19921;-71
2023/08/25 09:25:34;;;;;;;11.00;7.65;;;30.50;91.60;;;;;;7393024;19;19915;-72
2023/08/25 09:28:04;;;;;;;11.10;8.13;;;30.80;90.80;;;;;;7392170;19;19930;-74
2023/08/25 09:30:47;;;;;;;11.55;7.85;;;30.70;90.50;;;;;;7396442;19;19919;-74
2023/08/25 09:33:13;;;;;;;9.38;7.50;;;30.70;90.20;;;;;;7393766;19;19930;-74
2023/08/25 09:35:40;;;;;;;9.48;7.13;;;30.50;90.30;;;;;;7393894;19;19923;-73
2023/08/25 09:38:07;;;;;;;12.40;6.40;;;30.40;90.20;;;;;;7389831;19;20243;-73
2023/08/25 09:40:36;;;;;;;10.13;6.35;;;30.40;89.50;;;;;;7389129;19;19983;-74
2023/08/25 09:43:03;;;;;;;9.63;8.25;;;30.40;90.50;;;;;;7397364;19;19941;-73
2023/08/25 09:45:33;;;;;;;9.75;7.80;;;30.70;90.20;;;;;;7393462;19;19914;-74
2023/08/25 09:48:14;;;;;;;9.25;6.50;;;30.80;89.20;;;;;;7391985;19;19919;-71
2023/08/25 09:50:42;;;;;;;8.98;6.20;;;30.80;89.20;;;;;;7396024;19;19945;-74
2023/08/25 09:53:10;;;;;;;10.77;7.53;;;30.80;89.30;;;;;;7385290;19;19926;-71
2023/08/25 09:55:37;;;;;;;10.98;7.45;;;30.80;86.30;;;;;;7391253;19;19918;-72
2023/08/25 09:58:08;;;;;;;8.95;6.82;;;30.90;84.00;;;;;;7387668;19;20298;-72
2023/08/25 10:00:36;;;;;;;13.20;5.80;;;30.90;85.60;;;;;;7394719;19;20241;-73
2023/08/25 10:03:11;;;;;;;11.88;7.63;;;31.10;82.80;;;;;;7389352;19;20806;-72
2023/08/25 10:05:38;;;;;;;8.63;6.82;;;31.20;84.40;;;;;;7395726;19;19970;-72
2023/08/25 10:08:09;;;;;;;10.20;7.70;;;31.00;83.50;;;;;;7396049;19;21058;-71
2023/08/25 10:10:36;;;;;;;11.45;7.50;;;31.10;84.10;;;;;;7362246;19;20528;-74
2023/08/25 10:13:08;;;;;;;10.93;7.90;;;31.30;82.90;;;;;;7396694;19;19923;-73
2023/08/25 10:15:37;;;;;;;10.43;5.93;;;31.50;81.40;;;;;;7395934;19;20310;-73
2023/08/25 10:18:07;;;;;;;9.32;8.25;;;31.20;82.10;;;;;;7397490;19;19974;-74
2023/08/25 10:20:37;;;;;;;10.60;6.60;;;31.00;81.30;;;;;;7394899;19;20266;-72
2023/08/25 10:23:04;;;;;;;11.73;7.88;;;31.20;81.70;;;;;;7367016;19;19938;-73
2023/08/25 10:25:32;;;;;;;11.23;7.43;;;31.40;80.00;;;;;;7397316;19;20259;-72
2023/08/25 10:28:00;;;;;;;8.70;7.35;;;31.00;80.20;;;;;;7404006;19;19915;-72
2023/08/25 10:30:27;;;;;;;10.90;7.38;;;31.20;83.20;;;;;;7367940;19;19918;-73
2023/08/25 10:33:08;;;;;;;8.60;7.72;;;31.40;84.20;;;;;;7397994;19;19970;-74
2023/08/25 10:35:40;;;;;;;10.25;6.90;;;31.30;82.90;;;;;;7391747;19;19923;-71
2023/08/25 10:38:18;;;;;;;12.82;8.00;;;31.40;79.00;;;;;;7392622;19;20274;-72
2023/08/25 10:40:51;;;;;;;11.57;8.00;;;31.50;84.00;;;;;;7402606;19;19922;-74
2023/08/25 10:43:33;;;;;;;11.10;8.15;;;31.80;84.10;;;;;;7397382;19;20618;-74
2023/08/25 10:46:07;;;;;;;8.02;6.22;;;32.10;83.00;;;;;;7396240;19;19914;-74
2023/08/25 10:48:33;;;;;;;10.63;5.97;;;31.90;77.70;;;;;;7392236;19;19941;-72
2023/08/25 10:51:20;;;;;;;13.68;7.38;;;32.00;75.20;;;;;;7392536;19;19970;-73
2023/08/25 10:53:53;;;;;;;8.82;7.80;;;32.50;74.20;;;;;;7395879;19;19919;-73
2023/08/25 10:56:23;;;;;;;12.52;7.47;;;32.00;78.60;;;;;;7395246;19;19922;-72
2023/08/25 10:59:11;;;;;;;8.23;7.32;;;32.00;79.50;;;;;;7403323;19;19911;-74
2023/08/25 11:01:37;;;;;;;9.45;7.35;;;32.10;76.50;;;;;;7398797;19;19919;-72
2023/08/25 11:04:07;;;;;;;;;;;32.50;75.20;;;;;;7398050;19;19910;-73
2023/08/25 11:06:43;;;;;;;7.95;6.85;;;32.00;75.90;;;;;;7404092;19;19915;-73
2023/08/25 11:09:30;;;;;;;12.63;7.43;;;32.20;77.20;;;;;;7401493;19;19922;-73
2023/08/25 11:11:59;;;;;;;12.55;7.72;;;32.40;75.30;;;;;;7396541;19;19914;-74
2023/08/25 11:14:32;;;;;;;10.00;6.50;;;32.50;73.10;;;;;;7397141;19;20936;-72
2023/08/25 11:17:00;;;;;;;9.70;6.65;;;31.80;78.20;;;;;;7400603;19;19925;-74
2023/08/25 11:19:26;;;;;;;9.48;7.55;;;32.10;78.40;;;;;;7401394;19;19921;-74
2023/08/25 11:21:59;;;;;;;;;;;32.30;76.60;;;;;;7401292;19;19914;-75
2023/08/25 11:24:25;;;;;;;9.25;6.82;;;32.40;75.90;;;;;;7384184;19;19923;-74
2023/08/25 11:26:51;;;;;;;10.25;7.70;;;32.60;73.40;;;;;;7403352;19;20353;-74
2023/08/25 11:29:17;;;;;;;;;;;33.10;74.10;;;;;;7403810;19;20240;-74
2023/08/25 11:31:46;;;;;;;10.07;7.80;;;33.40;73.50;;;;;;7398261;19;19929;-73
2023/08/25 11:34:13;;;;;;;11.15;8.02;;;33.00;73.40;;;;;;7396408;19;19915;-74
2023/08/25 11:36:39;;;;;;;8.50;6.78;;;33.10;72.40;;;;;;7398198;19;19927;-75
2023/08/25 11:39:04;;;;;;;;;;;33.10;72.80;;;;;;7400419;19;20461;-73
2023/08/25 11:41:32;;;;;;;8.15;7.03;;;33.30;71.80;;;;;;7397039;19;19922;-76
2023/08/25 11:43:57;;;;;;;8.70;7.47;;;33.30;71.90;;;;;;7391502;19;19918;-74
2023/08/25 11:46:26;;;;;;;9.38;6.43;;;33.40;72.30;;;;;;7395228;19;20495;-75
2023/08/25 11:48:54;;;;;;;12.05;6.38;;;33.50;70.20;;;;;;7380264;19;19910;-76
2023/08/25 11:51:20;;;;;;;7.75;5.97;;;33.70;66.90;;;;;;7396501;19;19922;-77
2023/08/25 11:53:45;;;;;;;8.02;7.25;;;34.20;64.60;;;;;;7392592;19;19926;-74
2023/08/25 11:56:16;;;;;;;9.07;7.57;;;33.90;67.00;;;;;;7400837;19;19918;-72
2023/08/25 11:58:42;;;;;;;8.25;6.90;;;33.90;68.70;;;;;;7402711;19;19911;-75
2023/08/25 12:01:11;;;;;;;9.18;8.20;;;33.30;70.70;;;;;;7406660;19;19915;-74
2023/08/25 12:03:39;;;;;;;9.38;7.00;;;33.30;72.10;;;;;;7403465;19;19926;-75
2023/08/25 12:06:09;;;;;;;7.95;7.15;;;33.80;69.10;;;;;;7401055;19;19918;-76
2023/08/25 12:08:37;;;;;;;9.73;7.20;;;33.80;67.80;;;;;;7404725;19;19942;-77
2023/08/25 12:11:05;;;;;;;8.45;6.75;;;34.30;66.80;;;;;;7405713;19;19911;-78
2023/08/25 12:13:35;;;;;;;8.07;6.97;;;34.50;65.50;;;;;;7412702;19;19918;-76
2023/08/25 12:16:03;;;;;;;8.10;6.47;;;34.20;63.10;;;;;;7404204;19;19922;-78
2023/08/25 12:18:36;;;;;;;10.95;7.63;;;34.60;62.30;;;;;;7409811;19;19971;-76
2023/08/25 12:21:06;;;;;;;10.05;7.20;;;34.50;63.10;;;;;;7402020;19;20655;-76
2023/08/25 12:23:37;;;;;;;8.02;6.65;;;34.60;62.00;;;;;;7409791;19;19918;-79
2023/08/25 12:26:05;;;;;;;9.32;8.43;;;34.20;65.20;;;;;;7383018;19;19922;-78
2023/08/25 12:28:31;;;;;;;9.48;7.38;;;34.20;65.70;;;;;;7404961;19;19940;-75
2023/08/25 12:31:00;;;;;;;9.60;7.93;;;34.10;66.70;;;;;;7403522;19;19919;-77
2023/08/25 12:33:26;;;;;;;7.82;5.50;;;34.50;65.00;;;;;;7374183;19;20262;-74
2023/08/25 12:35:52;;;;;;;9.60;7.60;;;33.80;59.60;;;;;;7404690;19;19986;-77
2023/08/25 12:38:18;;;;;;;9.27;7.22;;;34.40;62.30;;;;;;7400653;19;19918;-74
2023/08/25 12:40:46;;;;;;;8.15;7.15;;;34.70;61.30;;;;;;7399770;19;19915;-75
2023/08/25 12:43:13;;;;;;;10.05;8.93;;;34.20;62.80;;;;;;7405213;19;20342;-77
2023/08/25 12:45:38;;;;;;;9.23;7.43;;;34.50;63.10;;;;;;7405507;19;19918;-76